createdAt,value
2024-01-11T00:00:56.563Z,92.81
2024-01-11T00:06:13.013Z,92.83
2024-01-11T00:11:17.524Z,92.82
2024-01-11T00:16:20.003Z,92.71
2024-01-11T00:21:21.465Z,92.72
2024-01-11T00:26:23.032Z,92.75
2024-01-11T00:31:24.635Z,92.77
2024-01-11T00:36:26.146Z,92.88
2024-01-11T00:41:27.725Z,92.88
2024-01-11T00:46:29.306Z,93.01
2024-01-11T00:51:30.771Z,92.93
2024-01-11T00:56:32.327Z,93.04
2024-01-11T01:01:33.888Z,92.96
2024-01-11T01:06:35.466Z,92.95
2024-01-11T01:11:37.082Z,92.96
2024-01-11T01:16:38.640Z,92.96
2024-01-11T01:21:40.396Z,92.97
2024-01-11T01:26:42.339Z,93.00
2024-01-11T01:31:44.054Z,93.07
2024-01-11T01:36:45.601Z,93.01
2024-01-11T01:41:47.162Z,92.95
2024-01-11T01:46:49.681Z,92.91
2024-01-11T01:51:54.223Z,92.91
2024-01-11T01:56:56.574Z,92.86
2024-01-11T02:01:59.149Z,92.89
2024-01-11T02:07:02.158Z,92.91
2024-01-11T02:12:05.511Z,92.87
2024-01-11T02:17:07.051Z,92.89
2024-01-11T02:22:34.350Z,92.86
2024-01-11T02:27:50.157Z,92.92
2024-01-11T02:32:52.263Z,92.92
2024-01-11T02:37:54.947Z,93.00
2024-01-11T02:42:56.469Z,93.21
2024-01-11T02:47:58.165Z,93.21
2024-01-11T02:53:00.012Z,93.14
2024-01-11T02:58:01.532Z,93.10
2024-01-11T03:03:03.513Z,93.01
2024-01-11T03:08:05.480Z,92.96
2024-01-11T03:13:08.018Z,92.86
2024-01-11T03:18:10.257Z,92.79
2024-01-11T03:23:12.003Z,92.75
2024-01-11T03:28:13.832Z,92.65
2024-01-11T03:33:15.457Z,92.60
2024-01-11T03:38:17.114Z,92.58
2024-01-11T03:43:19.084Z,92.58
2024-01-11T03:48:20.673Z,92.57
2024-01-11T03:53:22.260Z,92.60
2024-01-11T03:58:23.822Z,92.60
2024-01-11T04:03:25.346Z,92.56
2024-01-11T04:08:26.924Z,92.52
2024-01-11T04:13:28.421Z,92.50
2024-01-11T04:18:30.066Z,92.49
2024-01-11T04:23:31.721Z,92.43
2024-01-11T04:28:33.268Z,92.47
2024-01-11T04:33:34.855Z,92.47
2024-01-11T04:38:40.353Z,92.42
2024-01-11T04:43:44.468Z,92.43
2024-01-11T04:48:47.921Z,92.44
2024-01-11T04:53:49.717Z,92.50
2024-01-11T04:58:51.196Z,92.50
2024-01-11T05:03:52.705Z,92.50
2024-01-11T05:08:54.336Z,92.46
2024-01-11T05:13:55.959Z,92.40
2024-01-11T05:18:58.934Z,92.41
2024-01-11T05:24:01.240Z,92.39
2024-01-11T05:29:05.079Z,92.36
2024-01-11T05:34:06.728Z,92.36
2024-01-11T05:39:08.393Z,92.35
2024-01-11T05:44:10.054Z,92.32
2024-01-11T05:49:11.682Z,92.29
2024-01-11T05:54:13.416Z,92.28
2024-01-11T05:59:14.974Z,92.25
2024-01-11T06:04:16.986Z,92.29
2024-01-11T06:09:18.565Z,92.29
2024-01-11T06:14:20.701Z,92.30
2024-01-11T06:19:23.643Z,92.25
2024-01-11T06:24:25.158Z,92.22
2024-01-11T06:29:27.088Z,92.28
2024-01-11T06:34:28.928Z,92.29
2024-01-11T06:39:30.420Z,92.25
2024-01-11T06:44:34.736Z,92.24
2024-01-11T06:49:40.478Z,92.23
2024-01-11T06:54:42.639Z,92.18
2024-01-11T06:59:46.798Z,92.20
2024-01-11T07:04:48.370Z,92.21
2024-01-11T07:09:50.101Z,92.21
2024-01-11T07:14:52.243Z,92.18
2024-01-11T07:19:54.005Z,92.20
2024-01-11T07:24:55.506Z,92.21
2024-01-11T07:29:57.057Z,92.18
2024-01-11T07:34:58.665Z,92.16
2024-01-11T07:40:00.226Z,92.17
2024-01-11T07:45:01.968Z,92.19
2024-01-11T07:50:10.128Z,92.17
2024-01-11T07:55:13.090Z,92.15
2024-01-11T08:00:15.088Z,92.10
2024-01-11T08:05:16.795Z,92.14
2024-01-11T08:10:18.446Z,92.08
2024-01-11T08:15:20.005Z,92.04
2024-01-11T08:20:21.717Z,92.00
2024-01-11T08:25:23.325Z,92.00
2024-01-11T08:30:24.887Z,92.00
2024-01-11T08:35:26.828Z,92.00
2024-01-11T08:40:28.402Z,91.88
2024-01-11T08:45:30.238Z,91.65
2024-01-11T08:50:33.261Z,91.62
2024-01-11T08:55:34.861Z,91.63
2024-01-11T09:00:38.350Z,91.56
2024-01-11T09:05:40.538Z,91.56
2024-01-11T09:10:42.208Z,91.51
2024-01-11T09:15:43.716Z,91.52
2024-01-11T09:20:45.226Z,91.58
2024-01-11T09:25:46.861Z,91.68
2024-01-11T09:30:48.459Z,91.71
2024-01-11T09:35:50.043Z,91.74
2024-01-11T09:41:11.926Z,91.73
2024-01-11T09:46:16.948Z,91.79
2024-01-11T09:51:18.529Z,91.72
2024-01-11T09:56:20.259Z,91.81
2024-01-11T10:01:22.742Z,91.84
2024-01-11T10:06:26.841Z,91.87
2024-01-11T10:11:28.438Z,91.94
2024-01-11T10:16:30.490Z,91.94
2024-01-11T10:21:32.400Z,91.88
2024-01-11T10:26:34.245Z,91.83
2024-01-11T10:31:35.887Z,91.79
2024-01-11T10:36:37.735Z,91.80
2024-01-11T10:41:48.726Z,91.81
2024-01-11T10:46:51.237Z,91.81
2024-01-11T10:52:08.389Z,91.90
2024-01-11T10:57:12.600Z,92.03
2024-01-11T11:02:16.375Z,92.19
2024-01-11T11:07:19.315Z,92.28
2024-01-11T11:12:22.456Z,92.31
2024-01-11T11:17:24.593Z,92.48
2024-01-11T11:22:27.979Z,92.50
2024-01-11T11:27:30.839Z,92.55
2024-01-11T11:32:42.766Z,92.65
2024-01-11T11:37:44.771Z,92.64
2024-01-11T11:42:46.868Z,92.61
2024-01-11T11:47:48.523Z,92.67
2024-01-11T11:52:57.596Z,92.71
2024-01-11T11:57:59.095Z,92.93
2024-01-11T12:03:04.359Z,93.06
2024-01-11T12:08:06.524Z,92.99
2024-01-11T12:13:08.170Z,93.05
2024-01-11T12:18:10.529Z,93.10
2024-01-11T12:23:15.040Z,93.17
2024-01-11T12:28:17.516Z,93.19
2024-01-11T12:33:20.130Z,93.11
2024-01-11T12:38:22.420Z,93.01
2024-01-11T12:43:24.667Z,93.06
2024-01-11T12:48:26.636Z,93.07
2024-01-11T12:53:29.380Z,92.96
2024-01-11T12:58:30.973Z,92.91
2024-01-11T13:03:32.632Z,93.10
2024-01-11T13:08:40.417Z,93.11
2024-01-11T13:13:42.022Z,93.28
2024-01-11T13:18:43.854Z,93.25
2024-01-11T13:23:45.648Z,93.24
2024-01-11T13:28:47.264Z,93.17
2024-01-11T13:33:49.516Z,93.25
2024-01-11T13:38:52.032Z,93.16
2024-01-11T13:43:54.866Z,93.11
2024-01-11T13:48:56.499Z,93.23
2024-01-11T13:54:02.028Z,93.42
2024-01-11T13:59:04.327Z,93.28
2024-01-11T14:04:07.667Z,93.24
2024-01-11T14:09:36.602Z,93.25
2024-01-11T14:14:38.943Z,93.29
2024-01-11T14:19:40.671Z,93.25
2024-01-11T14:24:42.461Z,93.29
2024-01-11T14:29:44.163Z,93.13
2024-01-11T14:34:45.768Z,93.16
2024-01-11T14:39:49.876Z,93.23
2024-01-11T14:44:51.843Z,93.26
2024-01-11T14:49:53.562Z,92.80
2024-01-11T14:54:56.049Z,91.88
2024-01-11T15:00:00.691Z,91.64
2024-01-11T15:05:04.494Z,91.63
2024-01-11T15:10:07.123Z,91.74
2024-01-11T15:15:11.656Z,91.76
2024-01-11T15:20:20.035Z,91.43
2024-01-11T15:25:21.658Z,91.39
2024-01-11T15:30:23.965Z,91.32
2024-01-11T15:35:28.712Z,91.17
2024-01-11T15:40:31.794Z,91.19
2024-01-11T15:45:34.848Z,91.21
2024-01-11T15:50:38.242Z,91.14
2024-01-11T15:55:40.357Z,90.64
2024-01-11T16:00:45.624Z,90.27
2024-01-11T16:05:47.574Z,89.58
2024-01-11T16:10:49.699Z,89.50
2024-01-11T16:15:57.210Z,89.22
2024-01-11T16:20:58.976Z,89.53
2024-01-11T16:26:01.224Z,89.74
2024-01-11T16:31:04.297Z,89.58
2024-01-11T16:36:07.259Z,89.71
2024-01-11T16:41:11.772Z,89.82
2024-01-11T16:46:25.614Z,89.35
2024-01-11T16:51:29.079Z,89.14
2024-01-11T16:56:31.125Z,89.31
2024-01-11T17:01:33.222Z,89.29
2024-01-11T17:06:35.695Z,89.25
2024-01-11T17:11:45.510Z,89.24
2024-01-11T17:16:48.065Z,88.95
2024-01-11T17:21:49.815Z,88.40
2024-01-11T17:26:51.782Z,88.29
2024-01-11T17:31:53.828Z,88.14
2024-01-11T17:36:55.348Z,87.32
2024-01-11T17:42:00.120Z,86.00
2024-01-11T17:47:01.734Z,86.62
2024-01-11T17:52:04.898Z,86.42
2024-01-11T17:57:07.985Z,86.37
2024-01-11T18:02:09.918Z,86.43
2024-01-11T18:07:11.603Z,86.72
2024-01-11T18:12:16.138Z,86.43
2024-01-11T18:17:18.077Z,86.19
2024-01-11T18:22:30.171Z,86.50
2024-01-11T18:27:35.908Z,86.89
2024-01-11T18:32:40.190Z,87.21
2024-01-11T18:37:42.322Z,87.25
2024-01-11T18:42:44.059Z,87.17
2024-01-11T18:47:50.019Z,87.24
2024-01-11T18:52:52.332Z,87.25
2024-01-11T18:57:55.651Z,87.07
2024-01-11T19:02:59.044Z,86.99
2024-01-11T19:08:00.892Z,86.64
2024-01-11T19:13:02.712Z,85.64
2024-01-11T19:18:11.233Z,85.69
2024-01-11T19:23:13.733Z,84.73
2024-01-11T19:28:15.583Z,83.64
2024-01-11T19:33:20.361Z,82.52
2024-01-11T19:38:22.234Z,81.25
2024-01-11T19:43:26.554Z,81.93
2024-01-11T19:48:28.322Z,81.68
2024-01-11T19:53:30.227Z,80.25
2024-01-11T19:58:37.013Z,77.48
2024-01-11T20:03:42.089Z,78.18
2024-01-11T20:08:44.150Z,78.21
2024-01-11T20:13:48.899Z,78.17
2024-01-11T20:18:50.794Z,78.92
2024-01-11T20:23:52.698Z,77.99
2024-01-11T20:28:54.455Z,77.66
2024-01-11T20:33:56.721Z,77.65
2024-01-11T20:38:58.860Z,78.08
2024-01-11T20:44:11.269Z,78.30
2024-01-11T20:49:15.664Z,78.20
2024-01-11T20:54:19.586Z,77.71
2024-01-11T20:59:21.397Z,78.32
2024-01-11T21:04:25.202Z,78.52
2024-01-11T21:09:26.997Z,78.92
2024-01-11T21:14:36.368Z,78.94
2024-01-11T21:19:52.185Z,78.32
2024-01-11T21:24:57.383Z,78.55
2024-01-11T21:30:08.525Z,78.14
2024-01-11T21:35:11.585Z,78.44
2024-01-11T21:40:20.752Z,78.64
2024-01-11T21:45:26.815Z,78.96
2024-01-11T21:50:31.175Z,79.14
2024-01-11T21:55:33.244Z,79.64
2024-01-11T22:00:37.846Z,79.79
2024-01-11T22:05:40.256Z,79.53
2024-01-11T22:10:54.875Z,79.36
2024-01-11T22:16:20.103Z,79.29
2024-01-11T22:21:22.659Z,78.56
2024-01-11T22:26:29.373Z,78.15
2024-01-11T22:31:40.610Z,78.25
2024-01-11T22:36:50.136Z,77.49
2024-01-11T22:42:05.088Z,77.74
2024-01-11T22:47:22.187Z,78.16
2024-01-11T22:52:27.098Z,78.12
2024-01-11T22:57:32.167Z,78.36
2024-01-11T23:02:49.656Z,78.29
2024-01-11T23:08:02.302Z,78.46
2024-01-11T23:13:13.373Z,78.61
2024-01-11T23:18:36.475Z,78.21
2024-01-11T23:23:57.615Z,78.30
2024-01-11T23:28:59.721Z,78.31
2024-01-11T23:34:16.793Z,78.61
2024-01-11T23:39:26.797Z,78.25
2024-01-11T23:44:40.122Z,78.25
2024-01-11T23:49:53.261Z,78.65
2024-01-11T23:55:17.117Z,79.29
